Time;durP1;ratioP1;P1;durP2;ratioP2;P2;SDS_P1;SDS_P2;PMS_P1;PMS_P2;Temp;Humidity;BMP_temperature;BMP_pressure;BME280_temperature;BME280_humidity;BME280_pressure;Samples;Min_cycle;Max_cycle;Signal;HPM_P1;HPM_P2
2022/03/03 00:01:02;;;;;;;12.80;5.93;;;;;;;;;;5013167;28;20050;-69
2022/03/03 00:03:31;;;;;;;8.20;5.82;;;;;;;;;;4995718;28;20516;-70
2022/03/03 00:05:58;;;;;;;9.77;5.68;;;;;;;;;;5013078;28;20052;-73
2022/03/03 00:08:26;;;;;;;9.07;5.93;;;;;;;;;;5012339;28;20061;-73
2022/03/03 00:10:56;;;;;;;9.13;5.65;;;;;;;;;;5012844;28;20192;-73
2022/03/03 00:13:24;;;;;;;8.18;5.97;;;;;;;;;;5013040;28;20186;-73
2022/03/03 00:15:51;;;;;;;10.60;6.38;;;;;;;;;;5012902;28;20038;-73
2022/03/03 00:18:19;;;;;;;8.63;5.82;;;;;;;;;;5013056;28;20046;-73
2022/03/03 00:20:46;;;;;;;8.70;5.43;;;;;;;;;;5012465;28;20050;-73
2022/03/03 00:23:15;;;;;;;9.73;5.55;;;;;;;;;;5012364;28;20066;-69
2022/03/03 00:25:42;;;;;;;7.97;6.18;;;;;;;;;;5012634;28;20046;-72
2022/03/03 00:28:10;;;;;;;8.05;5.40;;;;;;;;;;5012318;28;20065;-72
2022/03/03 00:30:37;;;;;;;9.50;5.65;;;;;;;;;;5012293;28;20042;-69
2022/03/03 00:33:04;;;;;;;9.43;6.00;;;;;;;;;;4997625;28;20076;-72
2022/03/03 00:35:32;;;;;;;8.25;5.35;;;;;;;;;;5016499;28;20034;-73
2022/03/03 00:38:00;;;;;;;8.63;5.63;;;;;;;;;;4998681;28;20383;-73
2022/03/03 00:40:28;;;;;;;11.50;5.72;;;;;;;;;;5016061;28;20117;-73
2022/03/03 00:42:56;;;;;;;6.78;5.20;;;;;;;;;;5015593;28;20058;-70
2022/03/03 00:45:23;;;;;;;8.88;5.70;;;;;;;;;;5016324;28;20512;-73
2022/03/03 00:47:51;;;;;;;8.35;5.15;;;;;;;;;;5016060;28;20568;-72
2022/03/03 00:50:19;;;;;;;8.32;5.68;;;;;;;;;;5015885;28;20049;-72
2022/03/03 00:52:47;;;;;;;11.25;5.10;;;;;;;;;;5015885;28;20053;-69
2022/03/03 00:55:14;;;;;;;8.70;5.30;;;;;;;;;;5015821;28;20046;-73
2022/03/03 00:57:42;;;;;;;7.50;5.43;;;;;;;;;;4981910;28;20103;-70
2022/03/03 01:00:10;;;;;;;8.43;5.10;;;;;;;;;;5015341;28;20057;-69
2022/03/03 01:02:37;;;;;;;8.05;5.38;;;;;;;;;;5016299;28;20057;-72
2022/03/03 01:05:05;;;;;;;6.45;5.00;;;;;;;;;;5015785;28;20061;-73
2022/03/03 01:07:34;;;;;;;9.68;5.15;;;;;;;;;;4997793;28;20056;-73
2022/03/03 01:10:02;;;;;;;7.40;5.13;;;;;;;;;;5015837;28;20038;-73
2022/03/03 01:12:30;;;;;;;10.90;5.40;;;;;;;;;;5015740;28;20045;-69
2022/03/03 01:14:59;;;;;;;7.70;5.13;;;;;;;;;;5015726;28;20117;-73
2022/03/03 01:17:29;;;;;;;8.57;5.20;;;;;;;;;;5015485;28;20038;-70
2022/03/03 01:19:57;;;;;;;7.63;5.15;;;;;;;;;;5015575;28;20050;-69
2022/03/03 01:22:24;;;;;;;7.18;4.95;;;;;;;;;;5015584;28;20054;-70
2022/03/03 01:24:52;;;;;;;7.43;4.88;;;;;;;;;;5015424;28;20067;-69
2022/03/03 01:27:20;;;;;;;6.55;4.97;;;;;;;;;;5015512;28;20037;-73
2022/03/03 01:29:51;;;;;;;7.65;5.05;;;;;;;;;;5015235;28;20061;-72
2022/03/03 01:32:18;;;;;;;9.98;5.43;;;;;;;;;;5015009;28;20105;-70
2022/03/03 01:34:46;;;;;;;9.45;5.10;;;;;;;;;;5015211;28;20042;-70
2022/03/03 01:37:13;;;;;;;9.82;5.32;;;;;;;;;;5015360;28;20052;-70
2022/03/03 01:39:41;;;;;;;7.90;5.15;;;;;;;;;;5014999;28;20060;-72
2022/03/03 01:42:08;;;;;;;7.15;5.30;;;;;;;;;;4997678;28;20038;-69
2022/03/03 01:44:41;;;;;;;7.97;4.63;;;;;;;;;;5013768;28;20046;-73
2022/03/03 01:47:15;;;;;;;5.05;4.38;;;;;;;;;;5014697;28;20121;-72
2022/03/03 01:49:43;;;;;;;7.97;4.80;;;;;;;;;;5011552;28;20044;-69
2022/03/03 01:52:11;;;;;;;8.27;4.85;;;;;;;;;;5014923;28;20046;-69
2022/03/03 01:54:38;;;;;;;7.10;4.60;;;;;;;;;;5014981;28;20050;-71
2022/03/03 01:57:07;;;;;;;6.18;4.65;;;;;;;;;;5014625;28;20038;-73
2022/03/03 01:59:38;;;;;;;8.10;4.75;;;;;;;;;;4997366;28;20066;-73
2022/03/03 02:02:10;;;;;;;8.50;4.78;;;;;;;;;;5015115;28;20041;-73
2022/03/03 02:04:39;;;;;;;7.60;4.40;;;;;;;;;;5014676;28;20045;-69
2022/03/03 02:07:07;;;;;;;8.63;4.63;;;;;;;;;;5014057;28;20049;-72
2022/03/03 02:09:36;;;;;;;12.43;4.47;;;;;;;;;;5014362;28;20057;-70
2022/03/03 02:12:04;;;;;;;7.90;4.53;;;;;;;;;;5014553;28;20042;-72
2022/03/03 02:14:46;;;;;;;9.20;5.30;;;;;;;;;;5014356;28;20049;-72
2022/03/03 02:17:14;;;;;;;7.53;5.53;;;;;;;;;;5014191;28;20112;-72
2022/03/03 02:19:42;;;;;;;8.63;5.38;;;;;;;;;;5014269;28;20699;-70
2022/03/03 02:22:10;;;;;;;7.65;5.30;;;;;;;;;;5014088;28;20052;-72
2022/03/03 02:24:38;;;;;;;7.20;4.90;;;;;;;;;;5014129;28;20052;-69
2022/03/03 02:27:06;;;;;;;8.00;5.00;;;;;;;;;;5014005;28;20052;-69
2022/03/03 02:29:35;;;;;;;6.70;4.80;;;;;;;;;;5014035;28;20052;-69
2022/03/03 02:32:04;;;;;;;7.82;4.90;;;;;;;;;;5013914;28;20042;-73
2022/03/03 02:34:32;;;;;;;10.00;4.80;;;;;;;;;;5014135;28;20387;-70
2022/03/03 02:37:00;;;;;;;6.32;4.60;;;;;;;;;;4996888;28;20397;-70
2022/03/03 02:39:27;;;;;;;6.22;4.35;;;;;;;;;;5014236;28;20473;-73
2022/03/03 02:41:55;;;;;;;6.07;3.97;;;;;;;;;;5013450;28;20154;-69
2022/03/03 02:44:23;;;;;;;6.00;3.97;;;;;;;;;;5013798;28;20080;-69
2022/03/03 02:46:52;;;;;;;6.28;4.05;;;;;;;;;;5014017;28;20132;-69
2022/03/03 02:49:20;;;;;;;8.50;3.97;;;;;;;;;;4996596;28;20449;-69
2022/03/03 02:51:47;;;;;;;4.35;3.72;;;;;;;;;;5013931;28;20041;-70
2022/03/03 02:54:15;;;;;;;5.43;3.78;;;;;;;;;;5013653;28;20401;-70
2022/03/03 02:59:29;;;;;;;6.35;4.10;;;;;;;;;;5014026;28;20473;-70
2022/03/03 03:01:57;;;;;;;4.75;3.72;;;;;;;;;;5013805;28;20049;-71
2022/03/03 03:04:25;;;;;;;5.55;3.88;;;;;;;;;;4995841;28;20046;-70
2022/03/03 03:06:52;;;;;;;5.05;3.72;;;;;;;;;;5013665;28;20072;-69
2022/03/03 03:09:20;;;;;;;5.57;4.00;;;;;;;;;;5013252;28;20038;-73
2022/03/03 03:11:47;;;;;;;5.75;3.85;;;;;;;;;;4996080;28;20409;-69
2022/03/03 03:14:16;;;;;;;7.32;4.20;;;;;;;;;;5013356;28;20054;-70
2022/03/03 03:16:44;;;;;;;6.40;4.20;;;;;;;;;;5013576;28;20042;-70
2022/03/03 03:19:12;;;;;;;4.97;4.20;;;;;;;;;;5013057;28;20038;-73
2022/03/03 03:21:39;;;;;;;4.55;4.05;;;;;;;;;;4995648;28;20050;-69
2022/03/03 03:24:07;;;;;;;5.03;3.80;;;;;;;;;;5013181;28;20064;-70
2022/03/03 03:26:34;;;;;;;5.75;4.25;;;;;;;;;;5013232;28;20128;-72
2022/03/03 03:29:03;;;;;;;5.32;4.03;;;;;;;;;;5013209;28;20037;-73
2022/03/03 03:31:32;;;;;;;5.63;4.38;;;;;;;;;;5012899;28;20042;-69
2022/03/03 03:34:00;;;;;;;7.75;4.20;;;;;;;;;;5012816;28;20034;-70
2022/03/03 03:36:28;;;;;;;6.30;4.80;;;;;;;;;;4996162;28;20046;-70
2022/03/03 03:38:57;;;;;;;8.15;4.55;;;;;;;;;;5013406;28;20045;-69
2022/03/03 03:41:25;;;;;;;6.90;3.95;;;;;;;;;;5013175;28;20046;-69
2022/03/03 03:43:52;;;;;;;5.50;4.00;;;;;;;;;;5012956;28;20046;-73
2022/03/03 03:46:21;;;;;;;6.05;4.32;;;;;;;;;;5013179;28;20044;-72
2022/03/03 03:48:48;;;;;;;4.47;3.92;;;;;;;;;;4979591;28;20062;-69
2022/03/03 03:51:17;;;;;;;5.57;3.72;;;;;;;;;;5013002;28;20392;-72
2022/03/03 03:53:44;;;;;;;4.80;3.80;;;;;;;;;;5013089;28;20069;-73
2022/03/03 03:56:11;;;;;;;6.93;4.15;;;;;;;;;;5012332;28;20044;-69
2022/03/03 03:58:39;;;;;;;7.15;4.30;;;;;;;;;;5013526;28;20384;-70
2022/03/03 04:01:07;;;;;;;7.10;3.97;;;;;;;;;;5013193;28;20048;-72
2022/03/03 04:03:35;;;;;;;7.88;4.28;;;;;;;;;;5012472;28;20141;-72
2022/03/03 04:06:04;;;;;;;7.22;4.50;;;;;;;;;;5012769;28;20485;-72
2022/03/03 04:08:32;;;;;;;7.30;4.40;;;;;;;;;;5016139;28;20431;-73
2022/03/03 04:11:02;;;;;;;6.10;3.70;;;;;;;;;;5016884;28;20048;-70
2022/03/03 04:13:29;;;;;;;8.27;4.47;;;;;;;;;;4998916;28;20042;-70
2022/03/03 04:15:57;;;;;;;9.80;4.38;;;;;;;;;;5016839;28;20117;-70
2022/03/03 04:18:25;;;;;;;7.68;4.50;;;;;;;;;;5016970;28;20042;-72
2022/03/03 04:20:52;;;;;;;6.90;4.25;;;;;;;;;;5016279;28;20468;-72
2022/03/03 04:23:20;;;;;;;5.97;4.07;;;;;;;;;;5016823;28;20045;-70
2022/03/03 04:25:48;;;;;;;7.45;3.70;;;;;;;;;;5016545;28;20517;-73
2022/03/03 04:28:15;;;;;;;12.07;5.18;;;;;;;;;;5016420;28;20494;-69
2022/03/03 04:30:43;;;;;;;8.30;4.60;;;;;;;;;;5016390;28;20048;-71
2022/03/03 04:33:10;;;;;;;6.97;4.50;;;;;;;;;;5015971;28;20462;-69
2022/03/03 04:35:44;;;;;;;7.38;4.20;;;;;;;;;;4998420;28;20052;-72
2022/03/03 04:38:12;;;;;;;6.75;4.38;;;;;;;;;;5016660;28;20042;-70
2022/03/03 04:40:39;;;;;;;7.10;3.90;;;;;;;;;;4982885;28;20046;-72
2022/03/03 04:43:06;;;;;;;5.97;4.00;;;;;;;;;;5016564;28;20042;-72
2022/03/03 04:45:34;;;;;;;6.65;3.75;;;;;;;;;;4998413;28;20137;-71
2022/03/03 04:48:01;;;;;;;5.40;3.90;;;;;;;;;;4998646;28;20501;-73
2022/03/03 04:50:30;;;;;;;7.72;4.07;;;;;;;;;;5016093;28;20430;-72
2022/03/03 04:52:59;;;;;;;5.75;4.07;;;;;;;;;;5016114;28;20093;-70
2022/03/03 04:55:27;;;;;;;6.15;4.40;;;;;;;;;;5016056;28;20160;-69
2022/03/03 04:57:54;;;;;;;11.48;4.28;;;;;;;;;;5015864;28;20038;-71
2022/03/03 05:00:22;;;;;;;6.18;4.10;;;;;;;;;;5015489;28;20053;-70
2022/03/03 05:02:52;;;;;;;8.25;4.35;;;;;;;;;;4998698;28;20489;-69
2022/03/03 05:05:23;;;;;;;6.30;4.65;;;;;;;;;;4997827;28;20493;-69
2022/03/03 05:07:51;;;;;;;5.50;4.63;;;;;;;;;;4997716;28;20042;-72
2022/03/03 05:10:20;;;;;;;7.35;4.43;;;;;;;;;;5015592;28;20037;-72
2022/03/03 05:12:48;;;;;;;8.20;5.20;;;;;;;;;;5015675;28;20030;-71
2022/03/03 05:15:15;;;;;;;9.15;4.57;;;;;;;;;;5015054;28;20042;-72
2022/03/03 05:17:43;;;;;;;8.55;5.10;;;;;;;;;;4997939;28;20097;-72
2022/03/03 05:20:11;;;;;;;7.57;5.15;;;;;;;;;;5015460;28;20413;-70
2022/03/03 05:22:39;;;;;;;5.18;4.47;;;;;;;;;;5015511;28;20054;-73
2022/03/03 05:25:10;;;;;;;6.05;4.53;;;;;;;;;;4997580;28;20082;-72
2022/03/03 05:27:40;;;;;;;9.27;4.57;;;;;;;;;;4997734;28;20417;-69
2022/03/03 05:30:15;;;;;;;6.65;4.15;;;;;;;;;;5014963;28;20082;-69
2022/03/03 05:32:44;;;;;;;8.25;4.40;;;;;;;;;;5014842;28;20116;-73
2022/03/03 05:35:14;;;;;;;6.88;4.47;;;;;;;;;;5015477;28;20045;-69
2022/03/03 05:37:42;;;;;;;9.10;4.10;;;;;;;;;;5015544;28;20038;-69
2022/03/03 05:40:10;;;;;;;6.43;4.25;;;;;;;;;;5015532;28;20069;-69
2022/03/03 05:42:38;;;;;;;10.65;4.05;;;;;;;;;;5015298;28;20045;-69
2022/03/03 05:45:08;;;;;;;7.13;3.78;;;;;;;;;;5014628;28;20393;-73
2022/03/03 05:47:36;;;;;;;7.47;3.95;;;;;;;;;;5015233;28;20089;-72
2022/03/03 05:50:05;;;;;;;13.48;4.60;;;;;;;;;;4997172;28;20132;-73
2022/03/03 05:52:34;;;;;;;6.28;3.88;;;;;;;;;;4997183;28;20053;-73
2022/03/03 05:55:01;;;;;;;7.28;4.10;;;;;;;;;;5014310;28;20050;-70
2022/03/03 05:57:34;;;;;;;9.57;4.40;;;;;;;;;;5014462;28;20141;-69
2022/03/03 06:00:05;;;;;;;5.90;4.00;;;;;;;;;;4997093;28;20070;-70
2022/03/03 06:02:42;;;;;;;9.50;4.13;;;;;;;;;;4995469;28;20066;-73
2022/03/03 06:05:10;;;;;;;6.70;3.95;;;;;;;;;;4995001;28;20042;-70
2022/03/03 06:07:45;;;;;;;7.80;4.13;;;;;;;;;;5000327;28;20099;-73
2022/03/03 06:10:13;;;;;;;7.82;4.03;;;;;;;;;;4997307;28;20057;-73
2022/03/03 06:12:47;;;;;;;10.50;4.70;;;;;;;;;;4995644;28;20074;-73
2022/03/03 06:15:15;;;;;;;7.50;4.32;;;;;;;;;;5010691;28;20084;-71
2022/03/03 06:17:44;;;;;;;5.35;4.28;;;;;;;;;;5014261;28;20125;-70
2022/03/03 06:20:12;;;;;;;5.80;4.40;;;;;;;;;;5013302;28;20062;-72
2022/03/03 06:22:40;;;;;;;7.70;4.40;;;;;;;;;;5009361;28;20042;-73
2022/03/03 06:25:08;;;;;;;6.32;4.13;;;;;;;;;;5009686;28;20081;-75
2022/03/03 06:27:36;;;;;;;6.50;4.88;;;;;;;;;;4991388;28;20861;-73
2022/03/03 06:33:11;;;;;;;9.73;5.60;;;;;;;;;;4994289;28;20099;-73
2022/03/03 06:35:40;;;;;;;11.77;6.93;;;;;;;;;;5013267;28;20052;-70
2022/03/03 06:38:08;;;;;;;16.08;10.15;;;;;;;;;;5013960;28;20088;-73
2022/03/03 06:40:36;;;;;;;21.23;13.32;;;;;;;;;;5013467;28;20073;-70
2022/03/03 06:43:04;;;;;;;10.57;6.43;;;;;;;;;;4995580;28;20470;-73
2022/03/03 06:45:33;;;;;;;7.88;4.90;;;;;;;;;;4995234;28;20036;-73
2022/03/03 06:48:04;;;;;;;11.82;5.80;;;;;;;;;;4996242;28;20061;-70
2022/03/03 06:50:36;;;;;;;11.25;5.82;;;;;;;;;;5013647;28;20045;-73
2022/03/03 06:53:04;;;;;;;6.95;5.00;;;;;;;;;;5010595;28;20076;-71
2022/03/03 06:55:33;;;;;;;8.45;4.95;;;;;;;;;;4994327;28;20073;-73
2022/03/03 06:58:01;;;;;;;10.32;5.47;;;;;;;;;;5013470;28;20128;-70
2022/03/03 07:00:33;;;;;;;12.38;5.28;;;;;;;;;;5012524;28;20053;-70
2022/03/03 07:03:03;;;;;;;7.15;4.40;;;;;;;;;;5013361;28;20493;-73
2022/03/03 07:05:34;;;;;;;7.63;4.22;;;;;;;;;;5012557;28;20408;-72
2022/03/03 07:08:01;;;;;;;5.38;3.40;;;;;;;;;;4995467;28;20125;-70
2022/03/03 07:10:29;;;;;;;6.10;3.80;;;;;;;;;;5013348;28;20049;-70
2022/03/03 07:12:59;;;;;;;4.15;3.30;;;;;;;;;;5013551;28;20489;-73
2022/03/03 07:15:27;;;;;;;9.00;3.80;;;;;;;;;;5013244;28;20046;-70
2022/03/03 07:17:59;;;;;;;4.53;3.25;;;;;;;;;;5013148;28;20046;-70
2022/03/03 07:20:33;;;;;;;5.00;3.05;;;;;;;;;;5090672;22;20141;-72
2022/03/03 07:23:17;;;;;;;5.97;3.75;;;;;;;;;;4975014;28;20476;-73
2022/03/03 07:25:51;;;;;;;5.22;3.30;;;;;;;;;;4992810;28;20096;-75
2022/03/03 07:28:20;;;;;;;5.47;3.38;;;;;;;;;;4992398;28;20038;-73
2022/03/03 07:30:49;;;;;;;4.30;3.15;;;;;;;;;;4985376;28;20378;-75
2022/03/03 07:33:24;;;;;;;3.00;2.70;;;;;;;;;;4992772;28;20039;-72
2022/03/03 07:35:59;;;;;;;4.65;2.95;;;;;;;;;;4993091;28;20425;-73
2022/03/03 07:38:31;;;;;;;5.50;3.50;;;;;;;;;;4992984;28;20101;-72
2022/03/03 07:41:02;;;;;;;5.50;3.70;;;;;;;;;;4990405;28;20041;-76
2022/03/03 07:43:30;;;;;;;17.40;4.45;;;;;;;;;;4992573;28;20453;-73
2022/03/03 07:45:57;;;;;;;5.70;3.10;;;;;;;;;;4992391;28;20038;-73
2022/03/03 07:48:26;;;;;;;4.90;3.45;;;;;;;;;;4974883;28;20070;-75
2022/03/03 07:50:54;;;;;;;6.53;3.53;;;;;;;;;;4992789;28;20034;-74
2022/03/03 07:53:22;;;;;;;5.35;2.80;;;;;;;;;;4992646;28;20532;-74
2022/03/03 07:55:57;;;;;;;4.72;2.80;;;;;;;;;;4992472;28;20113;-74
2022/03/03 07:58:28;;;;;;;4.22;2.78;;;;;;;;;;4991212;28;20093;-74
2022/03/03 08:00:59;;;;;;;5.28;3.20;;;;;;;;;;4991676;28;20053;-72
2022/03/03 08:03:29;;;;;;;6.30;3.33;;;;;;;;;;4992922;28;20050;-77
2022/03/03 08:05:58;;;;;;;3.35;3.00;;;;;;;;;;4992585;28;20043;-72
2022/03/03 08:08:27;;;;;;;6.95;3.10;;;;;;;;;;4991891;28;20070;-80
2022/03/03 08:11:07;;;;;;;6.18;3.20;;;;;;;;;;4992280;28;20069;-78
2022/03/03 08:13:35;;;;;;;7.88;3.20;;;;;;;;;;4989961;28;20117;-79
2022/03/03 08:16:07;;;;;;;2.88;2.60;;;;;;;;;;4990344;28;20413;-78
2022/03/03 08:18:36;;;;;;;5.43;2.47;;;;;;;;;;4989014;28;20042;-72
2022/03/03 08:21:05;;;;;;;3.85;2.72;;;;;;;;;;4974082;28;20054;-80
2022/03/03 08:23:34;;;;;;;6.25;3.40;;;;;;;;;;4990821;28;20089;-72
2022/03/03 08:26:02;;;;;;;4.15;2.78;;;;;;;;;;4974744;28;20486;-72
2022/03/03 08:28:31;;;;;;;3.08;2.35;;;;;;;;;;4991989;28;20048;-72
2022/03/03 08:31:05;;;;;;;4.07;2.65;;;;;;;;;;4991763;28;20089;-72
2022/03/03 08:33:38;;;;;;;5.18;3.10;;;;;;;;;;4991657;28;20494;-78
2022/03/03 08:36:12;;;;;;;3.75;2.65;;;;;;;;;;4992344;28;20043;-72
2022/03/03 08:38:48;;;;;;;2.50;2.30;;;;;;;;;;4991156;28;20093;-72
2022/03/03 08:41:20;;;;;;;6.20;3.20;;;;;;;;;;4991480;28;20108;-79
2022/03/03 08:43:50;;;;;;;5.10;2.28;;;;;;;;;;4991978;28;20097;-79
2022/03/03 08:46:23;;;;;;;4.15;2.88;;;;;;;;;;4991740;28;20036;-78
2022/03/03 08:48:51;;;;;;;4.93;2.92;;;;;;;;;;4972758;28;20047;-80
2022/03/03 08:51:19;;;;;;;5.43;2.70;;;;;;;;;;4992077;28;20117;-72
2022/03/03 08:53:47;;;;;;;5.00;3.20;;;;;;;;;;4991679;28;20402;-81
2022/03/03 08:56:14;;;;;;;5.28;3.30;;;;;;;;;;4995368;28;20049;-79
2022/03/03 08:58:43;;;;;;;4.65;2.70;;;;;;;;;;4995241;28;20117;-73
2022/03/03 09:01:11;;;;;;;6.90;2.85;;;;;;;;;;4995378;28;20093;-74
2022/03/03 09:03:40;;;;;;;5.55;3.17;;;;;;;;;;4995292;28;20112;-78
2022/03/03 09:06:31;;;;;;;6.43;3.58;;;;;;;;;;4993125;28;20046;-77
2022/03/03 09:09:04;;;;;;;5.40;3.85;;;;;;;;;;4992298;28;20047;-78
2022/03/03 09:11:38;;;;;;;7.25;3.30;;;;;;;;;;4994967;28;20046;-77
2022/03/03 09:14:07;;;;;;;4.88;3.50;;;;;;;;;;4993695;28;20058;-74
2022/03/03 09:16:38;;;;;;;;;;;;;;;;;;4992171;28;20470;-78
2022/03/03 09:19:12;;;;;;;7.95;3.28;;;;;;;;;;4995113;28;19925;-74
2022/03/03 09:21:40;;;;;;;5.97;3.33;;;;;;;;;;4995002;28;20042;-79
2022/03/03 09:24:09;;;;;;;3.28;2.58;;;;;;;;;;4995268;28;20038;-77
2022/03/03 09:26:37;;;;;;;3.78;2.80;;;;;;;;;;4993876;28;20042;-75
2022/03/03 09:29:05;;;;;;;8.52;2.50;;;;;;;;;;4993744;28;20065;-79
2022/03/03 09:31:33;;;;;;;6.40;3.30;;;;;;;;;;4993740;28;20149;-75
2022/03/03 09:34:01;;;;;;;5.18;2.92;;;;;;;;;;4993653;28;20038;-75
2022/03/03 09:36:31;;;;;;;5.57;3.20;;;;;;;;;;4992213;28;20433;-75
2022/03/03 09:38:58;;;;;;;3.63;2.97;;;;;;;;;;4977459;28;20137;-75
2022/03/03 09:41:30;;;;;;;5.05;3.10;;;;;;;;;;4995845;28;20462;-77
2022/03/03 09:43:58;;;;;;;4.35;3.03;;;;;;;;;;4994830;28;20038;-73
2022/03/03 09:46:26;;;;;;;3.78;2.67;;;;;;;;;;4995244;28;20038;-77
2022/03/03 09:48:54;;;;;;;4.15;3.00;;;;;;;;;;4995082;28;20406;-75
2022/03/03 09:51:22;;;;;;;3.10;2.42;;;;;;;;;;4993655;28;20085;-75
2022/03/03 09:53:51;;;;;;;5.22;2.83;;;;;;;;;;4977347;28;20038;-75
2022/03/03 09:56:19;;;;;;;5.70;2.90;;;;;;;;;;4994055;28;20394;-79
2022/03/03 09:58:48;;;;;;;3.08;2.67;;;;;;;;;;4994080;28;20041;-79
2022/03/03 10:01:19;;;;;;;3.53;2.88;;;;;;;;;;4973590;28;20042;-78
2022/03/03 10:03:47;;;;;;;8.13;2.45;;;;;;;;;;4990925;28;20059;-75
2022/03/03 10:06:22;;;;;;;2.38;2.20;;;;;;;;;;4993016;28;20049;-75
2022/03/03 10:08:50;;;;;;;;;;;;;;;;;;4993554;28;20046;-79
2022/03/03 10:11:21;;;;;;;4.35;2.17;;;;;;;;;;4993417;28;20017;-75
2022/03/03 10:13:53;;;;;;;2.75;1.98;;;;;;;;;;4994495;28;20581;-76
2022/03/03 10:16:30;;;;;;;5.10;2.80;;;;;;;;;;4977545;28;20049;-78
2022/03/03 10:19:00;;;;;;;5.57;2.53;;;;;;;;;;4994868;28;20042;-79
2022/03/03 10:21:37;;;;;;;4.43;2.65;;;;;;;;;;4994406;28;20054;-75
2022/03/03 10:24:16;;;;;;;4.93;2.67;;;;;;;;;;4994262;28;20056;-75
2022/03/03 10:26:44;;;;;;;6.90;2.50;;;;;;;;;;4992651;28;20092;-78
2022/03/03 10:29:16;;;;;;;3.55;2.50;;;;;;;;;;4994199;28;20110;-74
2022/03/03 10:31:46;;;;;;;2.90;2.20;;;;;;;;;;4992076;28;20073;-78
2022/03/03 10:34:18;;;;;;;3.63;2.22;;;;;;;;;;4992652;28;20049;-75
2022/03/03 10:37:01;;;;;;;4.15;2.28;;;;;;;;;;4974715;28;20479;-73
2022/03/03 10:39:48;;;;;;;2.85;2.10;;;;;;;;;;4989690;28;20061;-75
2022/03/03 10:42:19;;;;;;;5.50;2.20;;;;;;;;;;4993662;28;20042;-72
2022/03/03 10:44:51;;;;;;;4.82;2.15;;;;;;;;;;4973277;28;20042;-75
2022/03/03 10:47:24;;;;;;;2.30;1.80;;;;;;;;;;4993510;28;20042;-72
2022/03/03 10:49:53;;;;;;;4.55;2.80;;;;;;;;;;4993136;28;20120;-75
2022/03/03 10:52:22;;;;;;;2.30;2.10;;;;;;;;;;4993184;28;20081;-75
2022/03/03 10:54:55;;;;;;;7.88;2.35;;;;;;;;;;4993783;28;20409;-75
2022/03/03 10:57:34;;;;;;;6.25;3.30;;;;;;;;;;4976172;28;20100;-75
2022/03/03 11:00:06;;;;;;;4.22;2.63;;;;;;;;;;4993738;28;20097;-72
2022/03/03 11:02:34;;;;;;;5.55;2.70;;;;;;;;;;4992504;28;20169;-75
2022/03/03 11:05:03;;;;;;;5.03;3.10;;;;;;;;;;4993747;28;20042;-72
2022/03/03 11:07:31;;;;;;;6.32;2.80;;;;;;;;;;4976338;28;20498;-74
2022/03/03 11:09:59;;;;;;;3.58;2.90;;;;;;;;;;4993185;28;20066;-74
2022/03/03 11:12:27;;;;;;;4.38;3.00;;;;;;;;;;4993504;28;20129;-75
2022/03/03 11:14:57;;;;;;;3.97;2.80;;;;;;;;;;4992258;28;20042;-74
2022/03/03 11:17:24;;;;;;;5.75;2.78;;;;;;;;;;4984316;28;20042;-72
2022/03/03 11:19:58;;;;;;;6.85;3.55;;;;;;;;;;4974167;28;20053;-74
2022/03/03 11:22:28;;;;;;;4.45;3.20;;;;;;;;;;4988720;28;20078;-74
2022/03/03 11:25:17;;;;;;;8.40;3.33;;;;;;;;;;4988472;28;20414;-74
2022/03/03 11:27:45;;;;;;;5.68;3.45;;;;;;;;;;4973766;28;20085;-74
2022/03/03 11:30:18;;;;;;;6.25;3.47;;;;;;;;;;4973904;28;20442;-72
2022/03/03 11:32:46;;;;;;;7.10;3.80;;;;;;;;;;4988106;28;20078;-75
2022/03/03 11:35:15;;;;;;;8.60;3.50;;;;;;;;;;4988627;28;20069;-72
2022/03/03 11:37:43;;;;;;;6.00;3.65;;;;;;;;;;4973517;28;20133;-74
2022/03/03 11:40:13;;;;;;;3.78;3.25;;;;;;;;;;4973667;28;20053;-71
2022/03/03 11:42:41;;;;;;;9.18;4.13;;;;;;;;;;4988173;28;20042;-74
2022/03/03 11:45:09;;;;;;;8.57;4.00;;;;;;;;;;4973346;28;20071;-72
2022/03/03 11:47:42;;;;;;;5.85;3.70;;;;;;;;;;4988718;28;20046;-72
2022/03/03 11:50:12;;;;;;;9.00;4.28;;;;;;;;;;4973975;28;20050;-74
2022/03/03 11:52:45;;;;;;;5.13;3.70;;;;;;;;;;4972562;28;20050;-73
2022/03/03 11:55:28;;;;;;;6.28;3.90;;;;;;;;;;4973845;28;20069;-71
2022/03/03 11:58:00;;;;;;;8.80;4.05;;;;;;;;;;4973634;28;20552;-72
2022/03/03 12:00:29;;;;;;;8.47;3.77;;;;;;;;;;4973784;28;20077;-74
2022/03/03 12:02:56;;;;;;;6.32;3.60;;;;;;;;;;4988219;28;20522;-72
2022/03/03 12:05:39;;;;;;;7.55;3.33;;;;;;;;;;4973403;28;20046;-74
2022/03/03 12:08:28;;;;;;;5.25;3.35;;;;;;;;;;4973046;28;20039;-74
2022/03/03 12:11:01;;;;;;;4.28;3.28;;;;;;;;;;4987970;28;20058;-72
2022/03/03 12:13:34;;;;;;;7.97;3.40;;;;;;;;;;4988189;28;20047;-72
2022/03/03 12:16:20;;;;;;;5.93;3.45;;;;;;;;;;4987965;28;20411;-74
2022/03/03 12:18:57;;;;;;;5.13;3.65;;;;;;;;;;4971809;28;20101;-72
2022/03/03 12:21:29;;;;;;;4.72;3.35;;;;;;;;;;4972669;28;20055;-73
2022/03/03 12:24:32;;;;;;;4.38;3.15;;;;;;;;;;4972961;28;20038;-72
2022/03/03 12:27:06;;;;;;;3.38;2.97;;;;;;;;;;4968365;28;20166;-72
2022/03/03 12:29:35;;;;;;;3.40;3.10;;;;;;;;;;4991083;28;20051;-74
2022/03/03 12:32:25;;;;;;;4.10;3.00;;;;;;;;;;4994060;28;20046;-71
2022/03/03 12:34:57;;;;;;;7.28;3.50;;;;;;;;;;4996822;28;20044;-75
2022/03/03 12:37:25;;;;;;;7.57;3.58;;;;;;;;;;4996692;28;20069;-74
2022/03/03 12:39:55;;;;;;;5.95;3.22;;;;;;;;;;4996471;28;20038;-73
2022/03/03 12:42:25;;;;;;;7.05;3.58;;;;;;;;;;4996502;28;20034;-72
2022/03/03 12:44:53;;;;;;;5.25;3.03;;;;;;;;;;4996146;28;20049;-74
2022/03/03 12:47:30;;;;;;;4.85;3.35;;;;;;;;;;4996452;28;20046;-74
2022/03/03 12:50:20;;;;;;;6.15;3.60;;;;;;;;;;4994896;28;20085;-72
2022/03/03 12:53:06;;;;;;;6.50;3.67;;;;;;;;;;4995816;28;20188;-74
2022/03/03 12:55:34;;;;;;;8.00;3.40;;;;;;;;;;4995378;28;20047;-74
2022/03/03 12:58:06;;;;;;;9.45;3.53;;;;;;;;;;4978570;28;20038;-72
2022/03/03 13:00:35;;;;;;;4.15;3.55;;;;;;;;;;4995440;28;20374;-72
2022/03/03 13:03:04;;;;;;;6.03;3.10;;;;;;;;;;4994070;28;20058;-73
2022/03/03 13:05:46;;;;;;;5.70;3.47;;;;;;;;;;4994045;28;20046;-74
2022/03/03 13:08:26;;;;;;;4.30;3.42;;;;;;;;;;4994108;28;20126;-72
2022/03/03 13:10:56;;;;;;;6.03;2.95;;;;;;;;;;4994721;28;20517;-72
2022/03/03 13:13:28;;;;;;;4.13;3.08;;;;;;;;;;4993287;28;20442;-71
2022/03/03 13:15:56;;;;;;;4.28;3.60;;;;;;;;;;4995045;28;20040;-72
2022/03/03 13:18:25;;;;;;;5.18;3.65;;;;;;;;;;4995267;28;20031;-72
2022/03/03 13:21:06;;;;;;;5.40;3.42;;;;;;;;;;4991098;28;20056;-72
2022/03/03 13:23:35;;;;;;;4.93;3.15;;;;;;;;;;4988535;28;20138;-72
2022/03/03 13:26:04;;;;;;;3.85;3.20;;;;;;;;;;4977773;28;20142;-73
2022/03/03 13:28:32;;;;;;;6.00;3.70;;;;;;;;;;4996880;28;20042;-72
2022/03/03 13:31:02;;;;;;;5.78;3.03;;;;;;;;;;4984195;28;20475;-73
2022/03/03 13:33:41;;;;;;;4.57;3.17;;;;;;;;;;4984341;28;20097;-73
2022/03/03 13:36:32;;;;;;;5.68;3.28;;;;;;;;;;4989149;28;20129;-75
2022/03/03 13:39:00;;;;;;;4.43;3.00;;;;;;;;;;4972090;28;20155;-74
2022/03/03 13:41:38;;;;;;;7.65;2.72;;;;;;;;;;4984261;28;20060;-72
2022/03/03 13:44:20;;;;;;;3.10;2.80;;;;;;;;;;4981620;28;20070;-72
2022/03/03 13:46:58;;;;;;;5.22;2.90;;;;;;;;;;4983758;28;20437;-74
2022/03/03 13:49:28;;;;;;;4.68;3.10;;;;;;;;;;4980377;28;20118;-72
2022/03/03 13:52:03;;;;;;;6.53;3.42;;;;;;;;;;4996718;28;20093;-72
2022/03/03 13:54:50;;;;;;;8.20;3.13;;;;;;;;;;4996404;28;20042;-72
2022/03/03 13:57:38;;;;;;;5.07;2.80;;;;;;;;;;4981214;28;20042;-76
2022/03/03 14:00:07;;;;;;;5.18;3.03;;;;;;;;;;4989119;28;20491;-72
2022/03/03 14:02:36;;;;;;;7.40;3.10;;;;;;;;;;4992752;28;20049;-72
2022/03/03 14:05:10;;;;;;;6.55;3.20;;;;;;;;;;4993140;28;20070;-73
2022/03/03 14:07:39;;;;;;;;;;;;;;;;;;4975643;28;20113;-72
2022/03/03 14:10:09;;;;;;;7.78;2.90;;;;;;;;;;4972417;28;19922;-72
2022/03/03 14:12:42;;;;;;;6.45;2.50;;;;;;;;;;4973943;28;20035;-72
2022/03/03 14:15:09;;;;;;;6.75;2.80;;;;;;;;;;4989459;28;20071;-73
2022/03/03 14:17:38;;;;;;;3.53;2.90;;;;;;;;;;4988180;28;20047;-73
2022/03/03 14:20:07;;;;;;;6.38;2.85;;;;;;;;;;4975031;28;20053;-73
2022/03/03 14:22:36;;;;;;;5.20;2.90;;;;;;;;;;4988356;28;20145;-72
2022/03/03 14:25:04;;;;;;;3.22;2.75;;;;;;;;;;4980624;28;20105;-72
2022/03/03 14:27:31;;;;;;;3.13;2.75;;;;;;;;;;4980879;28;20070;-74
2022/03/03 14:29:59;;;;;;;7.47;3.50;;;;;;;;;;4982642;28;20498;-72
2022/03/03 14:32:31;;;;;;;4.10;3.05;;;;;;;;;;4991883;28;20062;-73
2022/03/03 14:34:58;;;;;;;5.72;3.30;;;;;;;;;;4990523;28;20485;-73
2022/03/03 14:37:27;;;;;;;4.38;2.90;;;;;;;;;;4993274;28;20031;-73
2022/03/03 14:39:54;;;;;;;4.80;3.05;;;;;;;;;;4993910;28;20047;-72
2022/03/03 14:42:23;;;;;;;5.13;2.80;;;;;;;;;;4993588;28;20113;-73
2022/03/03 14:44:53;;;;;;;4.82;3.08;;;;;;;;;;4992911;28;20049;-73
2022/03/03 14:47:22;;;;;;;5.78;3.13;;;;;;;;;;4993585;28;20042;-74
2022/03/03 14:49:49;;;;;;;3.25;2.83;;;;;;;;;;4972721;28;20051;-74
2022/03/03 14:52:17;;;;;;;5.82;2.90;;;;;;;;;;4974240;28;20049;-75
2022/03/03 14:54:45;;;;;;;5.38;3.00;;;;;;;;;;4987317;28;20454;-72
2022/03/03 14:57:13;;;;;;;6.13;3.65;;;;;;;;;;4984245;28;20473;-75
2022/03/03 14:59:41;;;;;;;6.28;3.53;;;;;;;;;;4991572;28;20042;-72
2022/03/03 15:02:11;;;;;;;5.65;2.97;;;;;;;;;;4992140;28;20065;-75
2022/03/03 15:04:40;;;;;;;6.63;2.90;;;;;;;;;;4992399;28;20410;-73
2022/03/03 15:07:09;;;;;;;4.60;3.17;;;;;;;;;;4992165;28;20073;-75